createdAt,value
2018-12-12T00:01:08.334Z,7.94
2018-12-12T00:03:36.874Z,7.99
2018-12-12T00:06:05.800Z,8.03
2018-12-12T00:08:35.335Z,8.07
2018-12-12T00:11:04.888Z,8.11
2018-12-12T00:13:33.822Z,8.15
2018-12-12T00:16:02.306Z,8.19
2018-12-12T00:18:30.793Z,8.21
2018-12-12T00:20:59.331Z,8.25
2018-12-12T00:23:28.065Z,8.26
2018-12-12T00:25:56.577Z,8.28
2018-12-12T00:28:25.980Z,8.32
2018-12-12T00:30:54.525Z,8.34
2018-12-12T00:33:23.082Z,8.37
2018-12-12T00:35:51.595Z,8.38
2018-12-12T00:38:20.619Z,8.40
2018-12-12T00:40:49.221Z,8.44
2018-12-12T00:43:18.368Z,8.44
2018-12-12T00:45:48.225Z,8.48
2018-12-12T00:48:16.778Z,8.52
2018-12-12T00:50:45.391Z,8.54
2018-12-12T00:53:13.868Z,8.58
2018-12-12T00:55:43.442Z,8.57
2018-12-12T00:58:12.603Z,8.60
2018-12-12T01:00:41.569Z,8.59
2018-12-12T01:03:24.363Z,8.62
2018-12-12T01:05:53.134Z,8.65
2018-12-12T01:08:21.652Z,8.65
2018-12-12T01:10:55.191Z,8.69
2018-12-12T01:13:25.530Z,8.70
2018-12-12T01:15:53.967Z,8.72
2018-12-12T01:18:23.281Z,8.73
2018-12-12T01:20:51.800Z,8.74
2018-12-12T01:23:21.138Z,8.75
2018-12-12T01:25:49.616Z,8.76
2018-12-12T01:28:18.168Z,8.78
2018-12-12T01:30:48.188Z,8.78
2018-12-12T01:35:50.147Z,8.75
2018-12-12T01:38:18.732Z,8.74
2018-12-12T01:40:47.677Z,8.74
2018-12-12T01:43:16.761Z,8.73
2018-12-12T01:45:45.852Z,8.72
2018-12-12T01:48:14.352Z,8.73
2018-12-12T01:50:43.324Z,8.74
2018-12-12T01:53:11.902Z,8.74
2018-12-12T01:55:40.428Z,8.75
2018-12-12T01:58:09.982Z,8.78
2018-12-12T02:00:38.997Z,8.79
2018-12-12T02:03:07.565Z,8.79
2018-12-12T02:05:36.354Z,8.80
2018-12-12T02:08:05.187Z,8.82
2018-12-12T02:10:33.951Z,8.79
2018-12-12T02:13:13.929Z,8.81
2018-12-12T02:15:42.477Z,8.81
2018-12-12T02:18:11.543Z,8.82
2018-12-12T02:20:40.318Z,8.83
2018-12-12T02:23:09.336Z,8.86
2018-12-12T02:25:37.788Z,8.87
2018-12-12T02:28:06.368Z,8.87
2018-12-12T02:30:34.923Z,8.88
2018-12-12T02:33:03.897Z,8.91
2018-12-12T02:35:32.393Z,8.92
2018-12-12T02:38:01.369Z,8.92
2018-12-12T02:40:31.774Z,8.93
2018-12-12T02:43:00.263Z,8.96
2018-12-12T02:45:28.906Z,8.96
2018-12-12T02:47:57.695Z,8.99
2018-12-12T02:50:26.182Z,8.97
2018-12-12T02:52:54.695Z,8.96
2018-12-12T02:55:23.200Z,8.96
2018-12-12T02:57:54.229Z,8.98
2018-12-12T03:00:22.734Z,8.98
2018-12-12T03:02:51.257Z,9.00
2018-12-12T03:05:19.763Z,9.01
2018-12-12T03:07:48.255Z,9.02
2018-12-12T03:10:16.682Z,8.86
2018-12-12T03:12:45.125Z,9.05
2018-12-12T03:15:13.557Z,9.04
2018-12-12T03:17:42.023Z,9.04
2018-12-12T03:20:10.554Z,9.05
2018-12-12T03:22:39.033Z,9.03
2018-12-12T03:25:07.509Z,9.02
2018-12-12T03:27:35.951Z,9.04
2018-12-12T03:30:04.477Z,9.03
2018-12-12T03:32:32.957Z,9.07
2018-12-12T03:35:01.407Z,9.08
2018-12-12T03:37:29.854Z,9.10
2018-12-12T03:39:58.806Z,9.10
2018-12-12T03:42:28.321Z,9.12
2018-12-12T03:44:56.761Z,9.11
2018-12-12T03:47:25.280Z,9.09
2018-12-12T03:49:53.698Z,9.07
2018-12-12T03:52:22.162Z,9.05
2018-12-12T03:54:50.599Z,9.02
2018-12-12T03:57:19.070Z,8.97
2018-12-12T03:59:47.521Z,8.91
2018-12-12T04:02:16.015Z,8.85
2018-12-12T04:04:44.488Z,8.79
2018-12-12T04:07:12.934Z,8.71
2018-12-12T04:09:41.339Z,8.64
2018-12-12T04:12:09.891Z,8.55
2018-12-12T04:14:38.429Z,8.50
2018-12-12T04:17:06.943Z,8.42
2018-12-12T04:19:35.572Z,8.34
2018-12-12T04:22:04.321Z,8.29
2018-12-12T04:24:33.286Z,8.24
2018-12-12T04:27:01.816Z,8.22
2018-12-12T04:29:30.347Z,8.18
2018-12-12T04:32:05.048Z,8.17
2018-12-12T04:34:33.502Z,8.15
2018-12-12T04:37:02.020Z,8.13
2018-12-12T04:39:30.504Z,8.13
2018-12-12T04:41:58.922Z,8.12
2018-12-12T04:44:27.358Z,8.11
2018-12-12T04:46:55.996Z,8.10
2018-12-12T04:49:24.482Z,8.09
2018-12-12T04:51:52.921Z,8.07
2018-12-12T04:54:21.357Z,8.05
2018-12-12T04:56:49.872Z,8.04
2018-12-12T04:59:18.684Z,8.00
2018-12-12T05:01:47.207Z,7.97
2018-12-12T05:04:15.675Z,7.95
2018-12-12T05:06:44.141Z,7.89
2018-12-12T05:09:12.645Z,7.83
2018-12-12T05:11:41.195Z,7.80
2018-12-12T05:14:09.692Z,7.78
2018-12-12T05:16:38.200Z,7.80
2018-12-12T05:19:06.644Z,7.82
2018-12-12T05:21:35.200Z,7.83
2018-12-12T05:24:03.712Z,7.81
2018-12-12T05:26:32.909Z,7.81
2018-12-12T05:29:01.411Z,7.80
2018-12-12T05:31:29.966Z,7.80
2018-12-12T05:33:58.424Z,7.77
2018-12-12T05:36:26.899Z,7.75
2018-12-12T05:38:55.339Z,7.69
2018-12-12T05:41:23.883Z,7.63
2018-12-12T05:43:57.480Z,7.58
2018-12-12T05:46:22.866Z,7.53
2018-12-12T05:48:51.330Z,7.48
2018-12-12T05:51:19.817Z,7.43
2018-12-12T05:53:48.295Z,7.39
2018-12-12T05:56:29.112Z,7.32
2018-12-12T05:58:57.526Z,7.25
2018-12-12T06:01:26.001Z,7.22
2018-12-12T06:03:54.566Z,7.18
2018-12-12T06:06:23.097Z,7.14
2018-12-12T06:08:51.596Z,7.13
2018-12-12T06:11:20.042Z,7.09
2018-12-12T06:13:48.526Z,7.11
2018-12-12T06:16:16.980Z,7.09
2018-12-12T06:18:45.456Z,7.11
2018-12-12T06:21:13.883Z,7.14
2018-12-12T06:23:42.350Z,7.17
2018-12-12T06:26:10.779Z,7.22
2018-12-12T06:28:39.318Z,7.28
2018-12-12T06:31:07.789Z,7.37
2018-12-12T06:33:36.307Z,7.45
2018-12-12T06:36:04.744Z,7.52
2018-12-12T06:38:33.143Z,7.58
2018-12-12T06:41:01.521Z,7.66
2018-12-12T06:43:30.005Z,7.71
2018-12-12T06:45:58.482Z,7.76
2018-12-12T06:48:26.996Z,7.80
2018-12-12T06:50:55.445Z,7.82
2018-12-12T06:53:23.961Z,7.85
2018-12-12T06:55:52.414Z,7.85
2018-12-12T06:58:20.875Z,7.88
2018-12-12T07:00:49.302Z,7.91
2018-12-12T07:03:17.724Z,7.94
2018-12-12T07:05:46.190Z,7.97
2018-12-12T07:08:14.616Z,8.01
2018-12-12T07:10:43.051Z,8.05
2018-12-12T07:13:11.527Z,8.11
2018-12-12T07:15:39.955Z,8.14
2018-12-12T07:18:08.444Z,8.19
2018-12-12T07:20:36.862Z,8.23
2018-12-12T07:23:05.269Z,8.28
2018-12-12T07:25:33.787Z,8.29
2018-12-12T07:28:02.290Z,8.34
2018-12-12T07:30:30.819Z,8.37
2018-12-12T07:32:59.246Z,8.43
2018-12-12T07:35:27.699Z,8.44
2018-12-12T07:37:56.277Z,8.47
2018-12-12T07:40:24.776Z,8.46
2018-12-12T07:42:53.169Z,8.48
2018-12-12T07:45:21.651Z,8.52
2018-12-12T07:47:50.162Z,8.54
2018-12-12T07:50:18.669Z,8.56
2018-12-12T07:52:47.219Z,8.57
2018-12-12T07:55:15.802Z,8.61
2018-12-12T07:57:44.223Z,8.64
2018-12-12T08:00:13.148Z,8.68
2018-12-12T08:02:41.635Z,8.71
2018-12-12T08:05:10.104Z,8.77
2018-12-12T08:07:38.556Z,8.80
2018-12-12T08:10:07.086Z,8.81
2018-12-12T08:12:35.768Z,8.82
2018-12-12T08:15:04.234Z,8.85
2018-12-12T08:17:32.764Z,8.90
2018-12-12T08:20:01.396Z,8.94
2018-12-12T08:22:29.892Z,8.97
2018-12-12T08:24:58.449Z,9.00
2018-12-12T08:27:26.977Z,9.05
2018-12-12T08:29:55.476Z,9.05
2018-12-12T08:32:24.258Z,9.08
2018-12-12T08:34:52.795Z,9.12
2018-12-12T08:37:21.291Z,9.16
2018-12-12T08:39:49.823Z,9.17
2018-12-12T08:42:18.287Z,9.20
2018-12-12T08:44:46.754Z,9.23
2018-12-12T08:47:15.220Z,9.28
2018-12-12T08:49:43.695Z,9.32
2018-12-12T08:52:12.162Z,9.35
2018-12-12T08:54:40.814Z,9.34
2018-12-12T08:57:09.537Z,9.32
2018-12-12T08:59:38.074Z,9.30
2018-12-12T09:02:06.666Z,9.31
2018-12-12T09:04:35.177Z,9.33
2018-12-12T09:07:03.721Z,9.33
2018-12-12T09:09:32.221Z,9.37
2018-12-12T09:12:00.680Z,9.42
2018-12-12T09:14:29.201Z,9.47
2018-12-12T09:16:57.751Z,9.51
2018-12-12T09:19:26.215Z,9.56
2018-12-12T09:21:54.679Z,9.59
2018-12-12T09:24:23.227Z,9.62
2018-12-12T09:26:52.364Z,9.64
2018-12-12T09:29:20.860Z,9.67
2018-12-12T09:31:49.331Z,9.71
2018-12-12T09:34:17.840Z,9.75
2018-12-12T09:36:46.314Z,9.80
2018-12-12T09:39:14.860Z,9.83
2018-12-12T09:41:43.392Z,9.86
2018-12-12T09:44:11.906Z,9.86
2018-12-12T09:46:40.378Z,9.84
2018-12-12T09:49:09.544Z,9.86
2018-12-12T09:51:38.025Z,9.94
2018-12-12T09:54:06.549Z,9.99
2018-12-12T09:56:35.012Z,10.00
2018-12-12T09:59:03.508Z,10.04
2018-12-12T10:01:32.027Z,10.09
2018-12-12T10:04:00.500Z,10.10
2018-12-12T10:06:28.975Z,10.10
2018-12-12T10:08:57.637Z,10.11
2018-12-12T10:11:26.274Z,10.11
2018-12-12T10:13:54.711Z,10.16
2018-12-12T10:16:23.308Z,10.13
2018-12-12T10:18:51.715Z,10.16
2018-12-12T10:21:20.230Z,10.24
2018-12-12T10:23:49.238Z,10.25
2018-12-12T10:57:59.455Z,10.19
2018-12-12T11:00:27.931Z,10.33
2018-12-12T11:03:01.516Z,10.87
2018-12-12T11:05:32.409Z,12.64
2018-12-12T11:08:00.855Z,15.66
2018-12-12T11:10:29.499Z,18.63
2018-12-12T11:13:00.753Z,20.91
2018-12-12T11:15:29.419Z,22.81
2018-12-12T11:17:57.985Z,24.67
2018-12-12T11:20:26.583Z,25.37
2018-12-12T11:22:55.112Z,26.21
2018-12-12T11:25:23.631Z,26.29
2018-12-12T11:27:52.161Z,26.25
2018-12-12T11:30:20.716Z,27.38
2018-12-12T11:32:49.264Z,28.20
2018-12-12T11:35:17.859Z,26.82
2018-12-12T11:37:46.445Z,24.63
2018-12-12T11:40:14.975Z,25.34
2018-12-12T11:42:43.548Z,23.89
2018-12-12T11:45:12.191Z,21.58
2018-12-12T11:47:40.904Z,20.47
2018-12-12T11:50:09.378Z,19.11
2018-12-12T11:52:38.008Z,18.62
2018-12-12T11:55:18.776Z,20.90
2018-12-12T11:57:47.523Z,23.11
2018-12-12T12:00:16.047Z,25.25
2018-12-12T12:02:44.565Z,26.67
2018-12-12T12:05:13.061Z,28.89
2018-12-12T12:07:41.625Z,29.95
2018-12-12T12:10:11.092Z,30.86
2018-12-12T12:12:39.580Z,31.51
2018-12-12T12:15:08.588Z,31.67
2018-12-12T12:17:37.095Z,31.50
2018-12-12T12:20:05.783Z,31.50
2018-12-12T12:22:34.304Z,31.22
2018-12-12T12:25:02.747Z,28.88
2018-12-12T12:27:31.256Z,27.01
2018-12-12T12:30:00.816Z,24.72
2018-12-12T12:32:29.321Z,22.61
2018-12-12T12:34:57.873Z,21.22
2018-12-12T12:37:26.403Z,19.76
2018-12-12T12:39:54.870Z,18.44
2018-12-12T12:42:23.379Z,17.22
2018-12-12T12:44:51.869Z,16.28
2018-12-12T12:47:20.403Z,15.52
2018-12-12T12:49:48.979Z,15.24
2018-12-12T12:52:17.504Z,15.09
2018-12-12T12:54:46.156Z,14.85
2018-12-12T12:57:14.698Z,14.98
2018-12-12T12:59:43.329Z,14.99
2018-12-12T13:02:11.995Z,14.83
2018-12-12T13:04:40.516Z,14.39
2018-12-12T13:07:09.107Z,14.02
2018-12-12T13:09:38.877Z,13.79
2018-12-12T13:12:07.669Z,13.60
2018-12-12T13:14:36.534Z,13.31
2018-12-12T13:17:05.136Z,13.08
2018-12-12T13:19:33.599Z,12.78
2018-12-12T13:22:02.052Z,12.54
2018-12-12T13:24:30.515Z,12.29
2018-12-12T13:26:58.960Z,12.22
2018-12-12T13:29:27.435Z,12.12
2018-12-12T13:31:56.210Z,12.01
2018-12-12T13:34:24.971Z,11.90
2018-12-12T13:36:53.428Z,11.82
2018-12-12T13:39:21.978Z,11.69
2018-12-12T13:41:50.449Z,11.57
2018-12-12T13:44:18.952Z,11.50
2018-12-12T13:46:47.420Z,11.38
2018-12-12T13:49:16.435Z,11.25
2018-12-12T13:51:44.901Z,11.14
2018-12-12T13:54:13.404Z,11.06
2018-12-12T13:56:41.861Z,11.00
2018-12-12T13:59:10.350Z,10.95
2018-12-12T14:01:38.811Z,10.84
2018-12-12T14:04:07.284Z,10.74
2018-12-12T14:06:35.769Z,10.63
2018-12-12T14:09:05.600Z,10.51
2018-12-12T14:11:34.154Z,10.44
2018-12-12T14:14:02.668Z,10.42
2018-12-12T14:16:31.227Z,10.38
2018-12-12T14:18:59.804Z,10.30
2018-12-12T14:21:28.297Z,10.25
2018-12-12T14:23:56.900Z,10.22
2018-12-12T14:26:25.405Z,10.17
2018-12-12T14:28:53.946Z,10.05
2018-12-12T14:31:23.763Z,9.99
2018-12-12T14:33:52.428Z,9.97
2018-12-12T14:36:20.933Z,9.93
2018-12-12T14:38:49.678Z,9.93
2018-12-12T14:41:18.634Z,9.84
2018-12-12T14:43:47.187Z,9.82
2018-12-12T14:46:15.760Z,9.67
2018-12-12T14:48:44.296Z,9.64
2018-12-12T14:51:12.774Z,9.60
2018-12-12T14:53:41.357Z,9.52
2018-12-12T14:56:09.981Z,9.46
2018-12-12T14:58:38.603Z,9.41
2018-12-12T15:01:07.126Z,9.34
2018-12-12T15:03:35.633Z,9.30
2018-12-12T15:06:04.090Z,9.24
2018-12-12T15:08:32.584Z,9.14
2018-12-12T15:11:01.076Z,9.08
2018-12-12T15:13:29.612Z,9.03
2018-12-12T15:15:58.110Z,8.99
2018-12-12T15:18:26.662Z,8.94
2018-12-12T15:20:55.174Z,8.86
2018-12-12T15:23:23.763Z,8.81
2018-12-12T15:25:52.259Z,8.69
2018-12-12T15:28:20.741Z,8.71
2018-12-12T15:30:49.236Z,8.60
2018-12-12T15:33:17.833Z,8.54
2018-12-12T15:35:46.324Z,8.49
2018-12-12T15:38:14.871Z,8.44
2018-12-12T15:40:43.692Z,8.40
2018-12-12T15:43:13.169Z,8.39
2018-12-12T15:45:41.637Z,8.32
2018-12-12T15:48:10.137Z,8.27
2018-12-12T15:50:38.677Z,8.24
2018-12-12T15:53:07.186Z,8.23
2018-12-12T15:55:35.718Z,8.17
2018-12-12T15:58:04.268Z,8.12
2018-12-12T16:00:33.051Z,8.09
2018-12-12T16:03:01.875Z,8.06
2018-12-12T16:05:31.844Z,8.04
2018-12-12T16:08:00.448Z,7.94
2018-12-12T16:10:29.087Z,7.89
2018-12-12T16:12:57.696Z,7.89
2018-12-12T16:15:26.222Z,7.85
2018-12-12T16:17:54.792Z,7.83
2018-12-12T16:20:23.418Z,7.78
2018-12-12T16:22:52.010Z,7.74
2018-12-12T16:25:20.604Z,7.71
2018-12-12T16:27:50.011Z,7.70
2018-12-12T16:30:18.997Z,7.64
2018-12-12T16:32:47.757Z,7.58
2018-12-12T16:35:16.405Z,7.58
2018-12-12T16:37:44.991Z,7.55
2018-12-12T16:40:13.561Z,7.54
2018-12-12T16:42:42.098Z,7.52
2018-12-12T16:45:10.633Z,7.49
2018-12-12T16:47:39.161Z,7.46
2018-12-12T16:50:08.115Z,7.46
2018-12-12T16:52:36.722Z,7.41
2018-12-12T16:55:05.234Z,7.40
2018-12-12T16:57:33.722Z,7.38
2018-12-12T17:00:02.306Z,7.37
2018-12-12T17:02:30.788Z,7.35
2018-12-12T17:05:02.305Z,7.33
2018-12-12T17:07:30.078Z,7.30
2018-12-12T17:09:58.688Z,7.27
2018-12-12T17:12:27.219Z,7.26
2018-12-12T17:14:55.824Z,7.25
2018-12-12T17:17:24.378Z,7.25
2018-12-12T17:19:53.064Z,7.21
2018-12-12T17:22:21.613Z,7.21
2018-12-12T17:24:50.272Z,7.19
2018-12-12T17:27:18.873Z,7.14
2018-12-12T17:32:29.401Z,7.10
2018-12-12T17:34:58.024Z,7.11
2018-12-12T17:37:26.541Z,7.07
2018-12-12T17:39:55.113Z,7.03
2018-12-12T17:42:23.661Z,7.01
2018-12-12T17:44:52.312Z,6.97
2018-12-12T17:47:20.874Z,6.97
2018-12-12T17:49:49.414Z,6.97
2018-12-12T17:52:17.937Z,6.97
2018-12-12T17:54:46.528Z,7.00
2018-12-12T17:57:37.156Z,7.02
2018-12-12T18:00:05.810Z,7.08
2018-12-12T18:02:34.360Z,7.13
2018-12-12T18:05:02.867Z,7.21
2018-12-12T18:07:31.350Z,7.25
2018-12-12T18:09:59.824Z,7.31
2018-12-12T18:12:28.658Z,7.09
2018-12-12T18:14:57.249Z,7.43
2018-12-12T18:17:25.790Z,7.48
2018-12-12T18:19:54.257Z,7.49
2018-12-12T18:22:22.689Z,7.50
2018-12-12T18:24:51.188Z,7.49
2018-12-12T18:27:19.612Z,7.49
2018-12-12T18:29:48.128Z,7.54
2018-12-12T18:32:16.608Z,7.58
2018-12-12T18:34:45.026Z,7.66
2018-12-12T18:37:13.713Z,7.72
2018-12-12T18:39:42.148Z,7.78
2018-12-12T18:42:10.610Z,7.84
2018-12-12T18:44:39.062Z,7.89
2018-12-12T18:47:07.616Z,7.90
2018-12-12T18:49:42.118Z,7.91
2018-12-12T18:52:16.752Z,7.91
2018-12-12T18:54:45.297Z,7.90
2018-12-12T18:57:13.800Z,7.88
2018-12-12T18:59:42.375Z,7.87
2018-12-12T19:02:10.844Z,7.88
2018-12-12T19:04:39.425Z,7.88
2018-12-12T19:07:08.009Z,7.87
2018-12-12T19:09:36.568Z,7.85
2018-12-12T19:12:05.174Z,7.81
2018-12-12T19:14:33.764Z,7.78
2018-12-12T19:17:02.415Z,7.77
2018-12-12T19:19:30.872Z,7.77
2018-12-12T19:21:59.413Z,7.77
2018-12-12T19:24:27.938Z,7.77
2018-12-12T19:26:56.491Z,7.75
2018-12-12T19:29:25.121Z,7.75
2018-12-12T19:31:53.673Z,7.71
2018-12-12T19:34:22.136Z,7.71
2018-12-12T19:36:50.585Z,7.72
2018-12-12T19:39:19.044Z,7.76
2018-12-12T19:41:47.475Z,7.78
2018-12-12T19:44:15.942Z,7.83
2018-12-12T19:46:44.395Z,7.85
2018-12-12T19:49:12.859Z,7.87
2018-12-12T19:51:41.321Z,7.91
2018-12-12T19:54:09.804Z,7.96
2018-12-12T19:56:38.277Z,7.97
2018-12-12T19:59:06.705Z,8.02
2018-12-12T20:01:35.203Z,8.07
2018-12-12T20:04:03.635Z,8.10
2018-12-12T20:06:32.084Z,8.13
2018-12-12T20:09:00.513Z,8.16
2018-12-12T20:11:28.926Z,8.20
2018-12-12T20:13:57.409Z,8.25
2018-12-12T20:16:25.859Z,8.29
2018-12-12T20:18:54.276Z,8.33
2018-12-12T20:21:22.722Z,8.35
2018-12-12T20:23:51.128Z,8.39
2018-12-12T20:26:19.508Z,8.42
2018-12-12T20:28:47.918Z,8.46
2018-12-12T20:31:16.348Z,8.50
2018-12-12T20:33:44.756Z,8.52
2018-12-12T20:36:13.165Z,8.52
2018-12-12T20:38:41.624Z,8.56
2018-12-12T20:41:10.027Z,8.57
2018-12-12T20:43:38.433Z,8.59
2018-12-12T20:46:06.864Z,8.61
2018-12-12T20:48:35.255Z,8.63
2018-12-12T20:51:03.694Z,8.65
2018-12-12T20:53:32.093Z,8.70
2018-12-12T20:56:00.542Z,8.75
2018-12-12T20:58:28.985Z,8.78
2018-12-12T21:00:57.380Z,8.79
2018-12-12T21:03:25.793Z,8.79
2018-12-12T21:05:54.688Z,8.80
2018-12-12T21:08:23.471Z,8.79
2018-12-12T21:10:51.927Z,7.83
2018-12-12T21:13:20.342Z,8.80
2018-12-12T21:15:48.939Z,8.79
2018-12-12T21:18:18.523Z,8.79
2018-12-12T21:20:47.124Z,8.76
2018-12-12T21:23:15.556Z,8.79
2018-12-12T21:25:44.374Z,8.81
2018-12-12T21:28:12.804Z,8.82
2018-12-12T21:30:41.243Z,8.64
2018-12-12T21:33:09.667Z,8.80
2018-12-12T21:35:38.075Z,8.75
2018-12-12T21:38:06.478Z,8.77
2018-12-12T21:40:34.853Z,8.77
2018-12-12T21:43:03.297Z,8.79
2018-12-12T21:45:31.709Z,8.71
2018-12-12T21:48:00.143Z,8.71
2018-12-12T21:50:28.515Z,8.73
2018-12-12T21:52:56.912Z,8.71
2018-12-12T21:55:25.407Z,8.72
2018-12-12T21:57:53.813Z,8.74
2018-12-12T22:00:22.824Z,8.76
2018-12-12T22:02:51.238Z,8.75
2018-12-12T22:05:19.702Z,8.77
2018-12-12T22:07:48.430Z,8.76
2018-12-12T22:10:16.894Z,8.80
2018-12-12T22:12:45.380Z,8.80
2018-12-12T22:15:13.841Z,8.84
2018-12-12T22:17:42.317Z,8.85
2018-12-12T22:20:10.757Z,8.87
2018-12-12T22:22:39.263Z,8.87
2018-12-12T22:25:07.740Z,8.89
2018-12-12T22:27:36.282Z,8.89
2018-12-12T22:30:05.259Z,8.89
2018-12-12T22:32:33.721Z,8.85
2018-12-12T22:35:02.195Z,8.79
2018-12-12T22:37:30.625Z,8.66
2018-12-12T22:39:59.067Z,8.54
2018-12-12T22:42:27.565Z,8.47
2018-12-12T22:44:56.108Z,8.38
2018-12-12T22:47:24.605Z,8.32
2018-12-12T22:49:53.081Z,8.30
2018-12-12T22:52:21.571Z,8.30
2018-12-12T22:54:50.020Z,8.30
2018-12-12T22:57:18.561Z,8.32
2018-12-12T22:59:47.032Z,8.32
2018-12-12T23:02:15.517Z,8.32
2018-12-12T23:04:43.997Z,8.32
2018-12-12T23:07:12.488Z,8.33
2018-12-12T23:09:40.964Z,8.34
2018-12-12T23:12:09.411Z,8.32
2018-12-12T23:14:37.882Z,8.35
2018-12-12T23:17:06.273Z,8.37
2018-12-12T23:19:34.696Z,8.36
2018-12-12T23:22:03.074Z,8.32
2018-12-12T23:24:31.489Z,8.38
2018-12-12T23:26:59.913Z,8.42
2018-12-12T23:29:28.352Z,8.41
2018-12-12T23:31:56.752Z,8.43
2018-12-12T23:34:25.242Z,8.43
2018-12-12T23:36:53.674Z,8.45
2018-12-12T23:39:22.101Z,8.48
2018-12-12T23:41:50.494Z,8.52
2018-12-12T23:44:18.907Z,8.55
2018-12-12T23:46:47.365Z,8.55
2018-12-12T23:49:15.821Z,8.53
2018-12-12T23:51:44.245Z,8.57
2018-12-12T23:54:12.697Z,8.56
2018-12-12T23:56:53.119Z,8.57
2018-12-12T23:59:21.650Z,8.52
